Terminal Aerodrome Forecast
Issued by NWS Bismarck, ND

Home | Current Version | Previous Version | Text Only | Print | Product List | Glossary Off
Versions: 1 2 3 4 5 6 7 8 9 10 11 12 13 14

000
FTUS43 KBIS 151100
TAFISN
TAF
KISN 151120Z 1512/1612 21010KT P6SM BKN250
     FM151400 24011KT P6SM BKN160
     FM151600 32013KT P6SM BKN050
     FM152000 34018G28KT P6SM SCT050
     FM160600 34012KT P6SM BKN035 OVC060=

USA.gov is the U.S. government's official web portal to all federal, state and local government web resources and services.